De Peyster, New York
Current Conditions -  °F | °C
As of 3:58 AM on Thursday 23 Oct 2014 (Local Time) from KGTB Reporting Station
Clear Clear  
Wind Chill: 33°   Ceiling: Unl
Heat Index: 41°   Visibility: 10mi
Dew Point: 34°   Wind: 15mph
Humidity: 77%   Direction: 30°NNE
Pressure: 30.04"   Gusts: 21mph
Location:  44.55°N, 75.43°W
Report Text: KGTB 230758Z AUTO 03013G18KT 10SM CLR 05/01 A3004 RMK AO2 SLP177 T00500013
Loading
Personal Weather Stations






























Interactive Weather Map New forecast layout! Learn more

10-Day Weather Forecast

Advertisements
Track Severe Weather on mobile